首页
METAR-TAF:

METAR-TAF

机场 :

莫比尔, 阿拉巴马州, 美国

纬度: 30-36-50N, 经度: 088-03-48W, 海拔: 7米

当前天气观测

该预报发布于54分钟前的07:53 UTC
风速5节,风向
温度 18°C
湿度 100%
气压 1010 hPa
能見度: 0.8公里

METAR: KBFM 170753Z AUTO 18005KT 1/2SM FG VV002 18/18 A2982 RMK AO2 SLP097 T01830178

时间: 02:47 (08:47 UTC)

预报

该预报发布于2小时和53分钟前的05:54 UTC
预报有效从17日的 06点(UTC)到 18日的 06点(UTC)
风速4节,风向南转南东
能見度: 1.6公里
阴天层高于200英尺
轻雾
从 17日的 0900点(UTC)
风速5节,风向南转南东
能見度: 0.8公里
层高于200英尺
从 17日的 1400点(UTC)
风速8节,风向南转南东
能見度: 4.8公里
阴天层高于800英尺
轻雾
从 17日的 1600点(UTC)
风速8节,风向
能見度: 10公里
阴天层高于1500英尺
从 17日的 2100点(UTC)
风速10节,风向
能見度: 10公里
阴天层高于3000英尺
从 18日的 0100点(UTC)
风速10节,风向
能見度: 8.0公里
阴天层高于900英尺
轻雾

TAF: KBFM 170554Z 1706/1806 16004KT 1SM BR OVC002 FM170900 15005KT 1/2SM FG VV002 FM171400 16008KT 3SM BR OVC008 FM171600 17008KT P6SM OVC015 FM172100 17010KT P6SM OVC030 FM180100 18010KT 5SM BR OVC009

超过4000个机场的气象观测和天气预报(METAR&TAF报告)。

可查询的气象台以黄色和红色小点在地图上表示。

将鼠标移到小点上方,可查看气象台名称。

然后点击查看天气观测和预报。

如需切换地图:点击带黑十字的绿色按钮放大地图;点击带横线的绿色按钮缩小地图;或者点击绿色箭头查看邻近地区的地图。


METAR-TAF: